Hauptseite
METAR-TAF:

METAR-TAF

Flughäfen :

Kimmirut, Nunavut, Kanada

Breite: 62-51N, Länge: 069-53W, Höhe: 53 m

Beobachtung

Neuester Wetterbericht von vor 7 Stunden und 53 Minuten, um 20:00 UTC
Wind 2 kt aus Nord/Nordost
Temperatur 1°C
Luftfeuchtigkeit 64%
Luftdruck 1024 hPa
Sichtweite: 24.1 km
Geschlossene Wolkendecke in der Höhe von 2800 ft

METAR: CYLC 182000Z 02002KT 15SM OVC028 01/M05 A3024 RMK SC8 0.9/-0.7/0.0/0 LASTSTFD OBS/NEXT 191200Z SLP246

Zeit: 23:53 (03:53 UTC)


TAF: fehlend

Wetterbeobachtungen und Prognosen von mehr als 4000 Flughäfen (METAR und TAF Bericht).

Die verfügbaren Stationen werden durch gelbe und rote Markierungen auf der Karte dargestellt.

Führen Sie die Maus auf sie, um den Namen der Station zu sehen.

Darauf klicken, um die Beobachtung von Wetterbeobachtungen und Prognosen zu sehen.

Um die Karte zu ändern : klicken Sie auf den grünen Tasten mit einem schwarzen Kreuz Zum Vergrößern, auf den grünen Button mit einem Gedankenstrich zu verkleinern, oder auf die grünen Pfeile für benachbarte Karten.


METAR-TAF: